createdAt,value
2016-08-03T00:00:18.239Z,0
2016-08-03T00:01:18.230Z,0
2016-08-03T00:02:18.284Z,0
2016-08-03T00:03:18.261Z,0
2016-08-03T00:04:18.268Z,0
2016-08-03T00:05:18.279Z,0
2016-08-03T00:06:18.272Z,0
2016-08-03T00:07:18.288Z,0
2016-08-03T00:08:18.302Z,0
2016-08-03T00:09:18.317Z,0
2016-08-03T00:10:19.035Z,0
2016-08-03T00:11:18.322Z,0
2016-08-03T00:12:18.351Z,0
2016-08-03T00:13:18.359Z,0
2016-08-03T00:14:18.385Z,0
2016-08-03T00:15:18.361Z,0
2016-08-03T00:16:18.345Z,0
2016-08-03T00:17:18.390Z,0
2016-08-03T00:18:18.392Z,0
2016-08-03T00:19:18.387Z,0
2016-08-03T00:20:18.422Z,0
2016-08-03T00:21:18.395Z,0
2016-08-03T00:22:18.444Z,0
2016-08-03T00:23:18.418Z,0
2016-08-03T00:24:18.436Z,0
2016-08-03T00:25:18.435Z,0
2016-08-03T00:26:18.474Z,0
2016-08-03T00:27:18.464Z,0
2016-08-03T00:28:18.465Z,0
2016-08-03T00:29:18.501Z,0
2016-08-03T00:30:18.492Z,0
2016-08-03T00:31:18.505Z,0
2016-08-03T00:32:18.508Z,0
2016-08-03T00:33:18.527Z,0
2016-08-03T00:34:18.514Z,0
2016-08-03T00:35:18.546Z,0
2016-08-03T00:36:18.512Z,0
2016-08-03T00:37:18.571Z,0
2016-08-03T00:38:18.561Z,0
2016-08-03T00:39:18.584Z,0
2016-08-03T00:40:18.576Z,0
2016-08-03T00:41:18.553Z,0
2016-08-03T00:42:18.596Z,0
2016-08-03T00:43:18.578Z,0
2016-08-03T00:44:18.593Z,0
2016-08-03T00:45:18.612Z,0
2016-08-03T00:46:18.626Z,0
2016-08-03T00:47:18.657Z,0
2016-08-03T00:48:18.678Z,0
2016-08-03T00:49:18.658Z,0
2016-08-03T00:50:18.650Z,0
2016-08-03T00:51:18.681Z,0
2016-08-03T00:52:18.673Z,0
2016-08-03T00:53:18.683Z,0
2016-08-03T00:54:18.697Z,0
2016-08-03T00:55:18.781Z,0
2016-08-03T00:56:18.741Z,0
2016-08-03T00:57:18.714Z,0
2016-08-03T00:58:18.743Z,0
2016-08-03T00:59:18.742Z,0
2016-08-03T01:00:18.742Z,0
2016-08-03T01:01:18.737Z,0
2016-08-03T01:02:18.735Z,0
2016-08-03T01:03:18.763Z,0
2016-08-03T01:04:18.752Z,0
2016-08-03T01:05:18.772Z,0
2016-08-03T01:06:18.815Z,0
2016-08-03T01:07:18.800Z,0
2016-08-03T01:08:18.805Z,0
2016-08-03T01:09:18.813Z,0
2016-08-03T01:10:18.791Z,0
2016-08-03T01:11:18.803Z,0
2016-08-03T01:12:19.553Z,0
2016-08-03T01:13:18.809Z,0
2016-08-03T01:14:18.855Z,0
2016-08-03T01:15:18.864Z,0
2016-08-03T01:16:19.564Z,0
2016-08-03T01:17:18.887Z,0
2016-08-03T01:18:18.901Z,0
2016-08-03T01:19:18.905Z,0
2016-08-03T01:20:18.907Z,0
2016-08-03T01:21:18.918Z,0
2016-08-03T01:22:18.926Z,0
2016-08-03T01:23:18.919Z,0
2016-08-03T01:24:18.935Z,0
2016-08-03T01:25:18.972Z,0
2016-08-03T01:26:18.929Z,0
2016-08-03T01:27:18.993Z,0
2016-08-03T01:28:18.993Z,0
2016-08-03T01:29:18.956Z,0
2016-08-03T01:30:18.998Z,0
2016-08-03T01:31:18.996Z,0
2016-08-03T01:32:19.029Z,0
2016-08-03T01:33:19.021Z,0
2016-08-03T01:34:19.025Z,0
2016-08-03T01:35:19.040Z,0
2016-08-03T01:36:19.015Z,0
2016-08-03T01:37:19.071Z,0
2016-08-03T01:38:19.066Z,0
2016-08-03T01:39:19.077Z,0
2016-08-03T01:40:19.070Z,0
2016-08-03T01:41:19.793Z,0
2016-08-03T01:42:19.104Z,0
2016-08-03T01:43:19.073Z,0
2016-08-03T01:44:19.100Z,0
2016-08-03T01:45:19.150Z,0
2016-08-03T01:46:19.116Z,0
2016-08-03T01:47:19.159Z,0
2016-08-03T01:48:19.115Z,0
2016-08-03T01:49:19.169Z,0
2016-08-03T01:50:19.147Z,0
2016-08-03T01:51:19.156Z,0
2016-08-03T01:52:19.152Z,0
2016-08-03T01:53:19.147Z,0
2016-08-03T01:54:19.165Z,0
2016-08-03T01:55:19.233Z,0
2016-08-03T01:56:19.203Z,0
2016-08-03T01:57:19.217Z,0
2016-08-03T01:58:19.231Z,0
2016-08-03T01:59:19.194Z,0
2016-08-03T02:00:19.255Z,0
2016-08-03T02:01:19.240Z,0
2016-08-03T02:02:19.261Z,0
2016-08-03T02:03:19.244Z,0
2016-08-03T02:04:19.262Z,0
2016-08-03T02:05:19.251Z,0
2016-08-03T02:06:19.294Z,0
2016-08-03T02:07:19.303Z,0
2016-08-03T02:08:19.304Z,0
2016-08-03T02:09:19.321Z,0
2016-08-03T02:10:19.307Z,0
2016-08-03T02:11:19.353Z,0
2016-08-03T02:12:19.295Z,0
2016-08-03T02:13:19.382Z,0
2016-08-03T02:15:19.386Z,0
2016-08-03T02:16:19.388Z,0
2016-08-03T02:17:19.389Z,0
2016-08-03T02:18:19.379Z,0
2016-08-03T02:19:19.413Z,0
2016-08-03T02:20:19.388Z,0
2016-08-03T02:21:19.411Z,0
2016-08-03T02:22:19.403Z,0
2016-08-03T02:23:19.437Z,0
2016-08-03T02:24:19.401Z,0
2016-08-03T02:25:19.445Z,0
2016-08-03T02:26:19.442Z,0
2016-08-03T02:27:19.485Z,0
2016-08-03T02:28:19.472Z,0
2016-08-03T02:30:19.499Z,0
2016-08-03T02:31:20.200Z,0
2016-08-03T02:32:19.507Z,0
2016-08-03T02:33:19.510Z,0
2016-08-03T02:34:19.569Z,0
2016-08-03T02:35:19.558Z,0
2016-08-03T02:36:19.541Z,0
2016-08-03T02:37:19.539Z,0
2016-08-03T02:38:19.571Z,0
2016-08-03T02:39:19.576Z,0
2016-08-03T02:40:19.591Z,0
2016-08-03T02:41:19.597Z,0
2016-08-03T02:42:19.571Z,0
2016-08-03T02:43:19.611Z,0
2016-08-03T02:45:19.629Z,0
2016-08-03T02:46:19.656Z,0
2016-08-03T02:47:19.623Z,0
2016-08-03T02:48:19.653Z,0
2016-08-03T02:49:19.647Z,0
2016-08-03T02:50:19.690Z,0
2016-08-03T02:51:19.699Z,0
2016-08-03T02:52:19.682Z,0
2016-08-03T02:53:19.691Z,0
2016-08-03T02:54:19.694Z,0
2016-08-03T02:55:20.022Z,0
2016-08-03T02:56:19.707Z,0
2016-08-03T02:57:19.719Z,0
2016-08-03T02:58:20.418Z,0
2016-08-03T03:00:19.779Z,0
2016-08-03T03:01:19.727Z,0
2016-08-03T03:02:19.734Z,0
2016-08-03T03:03:19.780Z,0
2016-08-03T03:04:19.783Z,0
2016-08-03T03:05:19.772Z,0
2016-08-03T03:06:19.762Z,0
2016-08-03T03:07:19.785Z,0
2016-08-03T03:08:19.832Z,0
2016-08-03T03:09:19.809Z,0
2016-08-03T03:10:19.840Z,0
2016-08-03T03:11:19.825Z,0
2016-08-03T03:12:19.861Z,0
2016-08-03T03:13:19.848Z,0
2016-08-03T03:15:19.923Z,0
2016-08-03T03:16:19.882Z,0
2016-08-03T03:17:19.876Z,0
2016-08-03T03:18:19.916Z,0
2016-08-03T03:19:19.882Z,0
2016-08-03T03:20:19.886Z,0
2016-08-03T03:21:19.924Z,0
2016-08-03T03:22:19.953Z,0
2016-08-03T03:23:19.930Z,0
2016-08-03T03:24:19.986Z,0
2016-08-03T03:25:19.926Z,0
2016-08-03T03:26:19.955Z,0
2016-08-03T03:27:19.962Z,0
2016-08-03T03:28:19.986Z,0
2016-08-03T03:30:20.012Z,0
2016-08-03T03:31:20.003Z,0
2016-08-03T03:32:20.006Z,0
2016-08-03T03:33:20.011Z,0
2016-08-03T03:34:20.003Z,0
2016-08-03T03:35:20.000Z,0
2016-08-03T03:36:20.016Z,0
2016-08-03T03:37:20.032Z,0
2016-08-03T03:38:20.042Z,0
2016-08-03T03:39:20.063Z,0
2016-08-03T03:40:20.092Z,0
2016-08-03T03:41:20.060Z,0
2016-08-03T03:42:20.097Z,0
2016-08-03T03:43:20.103Z,0
2016-08-03T03:44:20.102Z,0
2016-08-03T03:45:20.124Z,0
2016-08-03T03:46:20.108Z,0
2016-08-03T03:47:20.128Z,0
2016-08-03T03:48:20.117Z,0
2016-08-03T03:49:20.117Z,0
2016-08-03T03:50:20.158Z,0
2016-08-03T03:51:20.174Z,0
2016-08-03T03:52:20.846Z,0
2016-08-03T03:53:20.186Z,0
2016-08-03T03:54:20.200Z,0
2016-08-03T03:55:20.229Z,0
2016-08-03T03:56:20.885Z,0
2016-08-03T03:57:20.902Z,0
2016-08-03T03:58:20.237Z,0
2016-08-03T03:59:20.199Z,0
2016-08-03T04:00:20.273Z,0
2016-08-03T04:01:20.245Z,0
2016-08-03T04:02:20.256Z,0
2016-08-03T04:03:20.258Z,0
2016-08-03T04:04:20.263Z,0
2016-08-03T04:05:20.278Z,0
2016-08-03T04:06:20.291Z,0
2016-08-03T04:07:20.285Z,0
2016-08-03T04:08:20.292Z,0
2016-08-03T04:09:20.343Z,0
2016-08-03T04:10:20.307Z,0
2016-08-03T04:11:20.310Z,0
2016-08-03T04:12:20.369Z,0
2016-08-03T04:13:20.355Z,0
2016-08-03T04:14:20.365Z,0
2016-08-03T04:15:20.333Z,0
2016-08-03T04:16:20.352Z,0
2016-08-03T04:17:20.379Z,0
2016-08-03T04:18:20.401Z,0
2016-08-03T04:19:20.388Z,0
2016-08-03T04:20:20.408Z,0
2016-08-03T04:21:20.416Z,0
2016-08-03T04:22:20.403Z,0
2016-08-03T04:23:20.438Z,0
2016-08-03T04:24:20.436Z,0
2016-08-03T04:25:20.434Z,0
2016-08-03T04:26:20.450Z,0
2016-08-03T04:27:20.423Z,0
2016-08-03T04:28:20.466Z,0
2016-08-03T04:29:20.479Z,0
2016-08-03T04:30:20.493Z,0
2016-08-03T04:31:20.490Z,0
2016-08-03T04:32:20.482Z,0
2016-08-03T04:33:20.527Z,0
2016-08-03T04:34:20.553Z,0
2016-08-03T04:35:20.511Z,0
2016-08-03T04:36:20.512Z,0
2016-08-03T04:37:20.542Z,0
2016-08-03T04:38:20.558Z,0
2016-08-03T04:39:20.537Z,0
2016-08-03T04:40:20.556Z,0
2016-08-03T04:41:20.584Z,0
2016-08-03T04:42:20.580Z,0
2016-08-03T04:43:20.601Z,0
2016-08-03T04:44:20.606Z,0
2016-08-03T04:45:20.618Z,0
2016-08-03T04:46:20.633Z,0
2016-08-03T04:47:20.632Z,0
2016-08-03T04:48:20.627Z,0
2016-08-03T04:49:20.636Z,0
2016-08-03T04:50:20.631Z,0
2016-08-03T04:51:20.663Z,0
2016-08-03T04:52:20.687Z,0
2016-08-03T04:53:20.672Z,0
2016-08-03T04:54:20.678Z,0
2016-08-03T04:55:20.711Z,0
2016-08-03T04:56:20.926Z,0
2016-08-03T04:57:20.739Z,0
2016-08-03T04:58:20.726Z,0
2016-08-03T04:59:20.724Z,0
2016-08-03T05:00:20.751Z,0
2016-08-03T05:01:20.732Z,0
2016-08-03T05:02:20.761Z,0
2016-08-03T05:03:20.761Z,0
2016-08-03T05:04:20.774Z,0
2016-08-03T05:05:20.784Z,0
2016-08-03T05:06:20.768Z,0
2016-08-03T05:07:20.795Z,0
2016-08-03T05:08:20.782Z,0
2016-08-03T05:09:20.805Z,0
2016-08-03T05:10:20.811Z,0
2016-08-03T05:11:20.804Z,0
2016-08-03T05:12:20.834Z,0
2016-08-03T05:13:20.832Z,0
2016-08-03T05:14:20.844Z,0
2016-08-03T05:15:20.844Z,0
2016-08-03T05:16:20.853Z,0
2016-08-03T05:17:20.844Z,0
2016-08-03T05:18:20.886Z,0
2016-08-03T05:19:20.866Z,0
2016-08-03T05:20:20.863Z,0
2016-08-03T05:21:20.906Z,0
2016-08-03T05:22:20.923Z,0
2016-08-03T05:23:21.618Z,0
2016-08-03T05:24:20.920Z,0
2016-08-03T05:25:20.914Z,0
2016-08-03T05:26:20.928Z,0
2016-08-03T05:27:20.958Z,0
2016-08-03T05:28:20.991Z,0
2016-08-03T05:29:21.004Z,0
2016-08-03T05:30:20.985Z,0
2016-08-03T05:31:21.002Z,0
2016-08-03T05:32:20.986Z,0
2016-08-03T05:33:21.011Z,0
2016-08-03T05:34:20.984Z,0
2016-08-03T05:35:21.015Z,0
2016-08-03T05:36:21.050Z,0
2016-08-03T05:37:21.041Z,0
2016-08-03T05:38:21.062Z,0
2016-08-03T05:39:21.025Z,0
2016-08-03T05:40:21.070Z,0
2016-08-03T05:41:21.078Z,0
2016-08-03T05:42:21.068Z,0
2016-08-03T05:43:21.071Z,0
2016-08-03T05:44:21.092Z,0
2016-08-03T05:45:21.123Z,0
2016-08-03T05:46:21.092Z,0
2016-08-03T05:47:21.103Z,0
2016-08-03T05:48:21.159Z,0
2016-08-03T05:49:21.134Z,0
2016-08-03T05:50:21.129Z,0
2016-08-03T05:51:21.160Z,0
2016-08-03T05:52:21.154Z,0
2016-08-03T05:53:21.175Z,0
2016-08-03T05:54:21.172Z,0
2016-08-03T05:55:21.200Z,0
2016-08-03T05:56:21.269Z,0
2016-08-03T05:57:21.214Z,0
2016-08-03T05:58:21.236Z,0
2016-08-03T05:59:21.239Z,0
2016-08-03T06:00:21.238Z,0
2016-08-03T06:01:21.213Z,0
2016-08-03T06:02:21.254Z,0
2016-08-03T06:03:21.275Z,0
2016-08-03T06:04:21.262Z,0
2016-08-03T06:05:21.255Z,0
2016-08-03T06:06:21.287Z,0
2016-08-03T06:07:21.316Z,0
2016-08-03T06:08:21.979Z,0
2016-08-03T06:09:21.330Z,0
2016-08-03T06:10:21.276Z,0
2016-08-03T06:11:21.347Z,0
2016-08-03T06:12:21.340Z,0
2016-08-03T06:13:21.344Z,0
2016-08-03T06:14:21.351Z,0
2016-08-03T06:16:21.386Z,0
2016-08-03T06:17:21.400Z,0
2016-08-03T06:18:21.356Z,0
2016-08-03T06:19:21.412Z,0
2016-08-03T06:20:21.443Z,0
2016-08-03T06:21:21.408Z,0
2016-08-03T06:22:21.404Z,0
2016-08-03T06:23:21.451Z,0
2016-08-03T06:24:21.434Z,0
2016-08-03T06:25:21.438Z,0
2016-08-03T06:26:21.431Z,0
2016-08-03T06:27:21.451Z,0
2016-08-03T06:28:21.478Z,0
2016-08-03T06:29:21.454Z,0
2016-08-03T06:31:21.489Z,0
2016-08-03T06:32:21.497Z,0
2016-08-03T06:33:21.526Z,0
2016-08-03T06:34:21.561Z,0
2016-08-03T06:35:21.538Z,0
2016-08-03T06:36:21.523Z,0
2016-08-03T06:37:21.552Z,0
2016-08-03T06:38:21.553Z,0
2016-08-03T06:39:21.544Z,0
2016-08-03T06:40:21.561Z,0
2016-08-03T06:41:22.266Z,0
2016-08-03T06:42:21.577Z,0
2016-08-03T06:43:21.591Z,0
2016-08-03T06:44:21.583Z,0
2016-08-03T06:46:21.594Z,0
2016-08-03T06:47:21.620Z,0
2016-08-03T06:48:21.622Z,0
2016-08-03T06:49:21.625Z,0
2016-08-03T06:50:21.656Z,0
2016-08-03T06:51:21.705Z,0
2016-08-03T06:52:21.654Z,0
2016-08-03T06:53:21.678Z,0
2016-08-03T06:54:21.700Z,0
2016-08-03T06:55:21.687Z,0
2016-08-03T06:56:21.747Z,0
2016-08-03T06:57:21.711Z,0
2016-08-03T06:58:21.712Z,0
2016-08-03T06:59:21.717Z,0
2016-08-03T07:01:21.724Z,0
2016-08-03T07:02:21.742Z,0
2016-08-03T07:03:21.787Z,0
2016-08-03T07:04:21.762Z,0
2016-08-03T07:05:21.788Z,0
2016-08-03T07:06:21.776Z,0
2016-08-03T07:07:21.804Z,0
2016-08-03T07:08:21.821Z,0
2016-08-03T07:09:21.822Z,0
2016-08-03T07:10:21.811Z,0
2016-08-03T07:11:21.825Z,0
2016-08-03T07:12:21.844Z,0
2016-08-03T07:13:21.825Z,0
2016-08-03T07:14:21.865Z,0
2016-08-03T07:16:21.852Z,0
2016-08-03T07:17:21.899Z,0
2016-08-03T07:18:21.883Z,0
2016-08-03T07:19:21.878Z,0
2016-08-03T07:20:21.902Z,0
2016-08-03T07:21:21.907Z,0
2016-08-03T07:22:21.935Z,0
2016-08-03T07:23:21.925Z,0
2016-08-03T07:24:21.939Z,0
2016-08-03T07:25:21.973Z,0
2016-08-03T07:26:21.963Z,0
2016-08-03T07:27:22.652Z,0
2016-08-03T07:28:21.967Z,0
2016-08-03T07:29:21.964Z,0
2016-08-03T07:30:21.977Z,0
2016-08-03T07:31:21.997Z,0
2016-08-03T07:32:22.025Z,0
2016-08-03T07:33:22.009Z,0
2016-08-03T07:34:22.020Z,0
2016-08-03T07:35:22.036Z,0
2016-08-03T07:36:22.013Z,0
2016-08-03T07:37:22.031Z,0
2016-08-03T07:38:22.048Z,0
2016-08-03T07:39:22.035Z,0
2016-08-03T07:40:22.078Z,0
2016-08-03T07:41:22.042Z,0
2016-08-03T07:42:22.096Z,0
2016-08-03T07:43:22.120Z,0
2016-08-03T07:44:22.079Z,0
2016-08-03T07:45:22.117Z,20
2016-08-03T07:46:22.098Z,15
2016-08-03T07:47:22.144Z,15
2016-08-03T07:48:22.117Z,15
2016-08-03T07:49:22.128Z,15
2016-08-03T07:50:22.132Z,20
2016-08-03T07:51:22.137Z,20
2016-08-03T07:52:22.152Z,25
2016-08-03T07:53:22.346Z,25
2016-08-03T07:54:22.189Z,25
2016-08-03T07:55:22.190Z,25
2016-08-03T07:56:22.278Z,25
2016-08-03T07:57:22.199Z,20
2016-08-03T07:58:22.220Z,25
2016-08-03T07:59:22.206Z,25
2016-08-03T08:00:22.227Z,25
2016-08-03T08:01:22.239Z,20
2016-08-03T08:02:22.255Z,20
2016-08-03T08:03:22.244Z,20
2016-08-03T08:04:22.246Z,25
2016-08-03T08:05:22.240Z,25
2016-08-03T08:06:22.283Z,25
2016-08-03T08:07:22.298Z,25
2016-08-03T08:08:22.293Z,25
2016-08-03T08:09:22.306Z,25
2016-08-03T08:10:22.294Z,25
2016-08-03T08:11:22.278Z,25
2016-08-03T08:12:22.321Z,30
2016-08-03T08:13:22.335Z,30
2016-08-03T08:14:22.343Z,30
2016-08-03T08:15:22.349Z,30
2016-08-03T08:16:22.344Z,30
2016-08-03T08:17:22.350Z,30
2016-08-03T08:18:22.389Z,30
2016-08-03T08:19:22.366Z,30
2016-08-03T08:20:22.380Z,30
2016-08-03T08:21:22.393Z,30
2016-08-03T08:22:22.405Z,30
2016-08-03T08:23:22.440Z,30
2016-08-03T08:24:22.437Z,30
2016-08-03T08:25:22.461Z,35
2016-08-03T08:26:22.454Z,35
2016-08-03T08:27:22.468Z,30
2016-08-03T08:28:22.445Z,35
2016-08-03T08:29:22.480Z,35
2016-08-03T08:30:22.477Z,35
2016-08-03T08:31:22.481Z,35
2016-08-03T08:32:22.498Z,35
2016-08-03T08:33:22.512Z,35
2016-08-03T08:34:22.512Z,35
2016-08-03T08:35:22.496Z,35
2016-08-03T08:36:22.528Z,40
2016-08-03T08:37:22.543Z,35
2016-08-03T08:38:22.546Z,35
2016-08-03T08:39:22.535Z,30
2016-08-03T08:40:22.586Z,30
2016-08-03T08:41:22.562Z,30
2016-08-03T08:42:22.615Z,30
2016-08-03T08:43:22.581Z,30
2016-08-03T08:44:22.596Z,30
2016-08-03T08:45:22.587Z,30
2016-08-03T08:46:22.591Z,35
2016-08-03T08:47:22.599Z,35
2016-08-03T08:48:22.618Z,35
2016-08-03T08:49:22.624Z,20
2016-08-03T08:50:22.630Z,30
2016-08-03T08:51:22.659Z,35
2016-08-03T08:52:22.628Z,20
2016-08-03T08:53:22.662Z,20
2016-08-03T08:54:22.663Z,30
2016-08-03T08:55:22.683Z,35
2016-08-03T08:56:22.646Z,35
2016-08-03T08:57:22.715Z,35
2016-08-03T08:58:22.702Z,30
2016-08-03T08:59:22.724Z,25
2016-08-03T09:00:22.708Z,30
2016-08-03T09:01:22.730Z,30
2016-08-03T09:02:22.714Z,30
2016-08-03T09:03:22.763Z,30
2016-08-03T09:04:22.767Z,35
2016-08-03T09:05:22.770Z,35
2016-08-03T09:06:23.479Z,35
2016-08-03T09:07:22.797Z,20
2016-08-03T09:08:22.797Z,30
2016-08-03T09:09:22.812Z,20
2016-08-03T09:10:22.795Z,10
2016-08-03T09:11:22.826Z,5
2016-08-03T09:12:22.822Z,10
2016-08-03T09:13:22.819Z,15
2016-08-03T09:14:22.829Z,15
2016-08-03T09:15:22.845Z,15
2016-08-03T09:16:22.846Z,10
2016-08-03T09:17:22.881Z,5
2016-08-03T09:18:22.847Z,15
2016-08-03T09:19:22.861Z,15
2016-08-03T09:20:22.881Z,15
2016-08-03T09:21:22.892Z,15
2016-08-03T09:22:22.892Z,15
2016-08-03T09:23:22.962Z,5
2016-08-03T09:24:22.908Z,10
2016-08-03T09:25:22.894Z,5
2016-08-03T09:26:22.919Z,5
2016-08-03T09:27:22.935Z,15
2016-08-03T09:28:22.935Z,5
2016-08-03T09:29:22.926Z,15
2016-08-03T09:30:22.952Z,15
2016-08-03T09:31:22.960Z,15
2016-08-03T09:32:22.993Z,15
2016-08-03T09:33:22.957Z,15
2016-08-03T09:34:22.985Z,10
2016-08-03T09:35:23.004Z,10
2016-08-03T09:36:23.040Z,10
2016-08-03T09:37:23.018Z,15
2016-08-03T09:38:23.041Z,15
2016-08-03T09:39:23.016Z,15
2016-08-03T09:40:23.057Z,15
2016-08-03T09:41:23.045Z,15
2016-08-03T09:42:23.078Z,15
2016-08-03T09:43:23.064Z,15
2016-08-03T09:44:23.073Z,15
2016-08-03T09:45:23.061Z,15
2016-08-03T09:46:23.091Z,15
2016-08-03T09:47:23.111Z,15
2016-08-03T09:48:23.088Z,15
2016-08-03T09:49:23.096Z,15
2016-08-03T09:50:23.103Z,15
2016-08-03T09:51:23.086Z,15
2016-08-03T09:52:23.125Z,15
2016-08-03T09:53:23.152Z,15
2016-08-03T09:54:23.163Z,15
2016-08-03T09:55:23.154Z,15
2016-08-03T09:56:23.205Z,15
2016-08-03T09:57:23.174Z,15
2016-08-03T09:58:23.190Z,15
2016-08-03T09:59:23.199Z,15
2016-08-03T10:00:23.207Z,20
2016-08-03T10:01:23.208Z,20
2016-08-03T10:02:23.206Z,20
2016-08-03T10:03:23.238Z,20
2016-08-03T10:04:23.209Z,20
2016-08-03T10:05:23.252Z,20
2016-08-03T10:06:23.240Z,20
2016-08-03T10:07:23.277Z,20
2016-08-03T10:08:23.283Z,20
2016-08-03T10:09:23.321Z,20
2016-08-03T10:10:23.275Z,10
2016-08-03T10:11:23.272Z,20
2016-08-03T10:12:23.284Z,20
2016-08-03T10:13:23.312Z,10
2016-08-03T10:14:23.352Z,20
2016-08-03T10:15:23.338Z,20
2016-08-03T10:16:23.291Z,20
2016-08-03T10:17:23.351Z,20
2016-08-03T10:18:23.366Z,20
2016-08-03T10:19:23.338Z,10
2016-08-03T10:20:23.388Z,20
2016-08-03T10:21:23.410Z,20
2016-08-03T10:22:23.391Z,20
2016-08-03T10:23:23.378Z,20
2016-08-03T10:24:23.402Z,20
2016-08-03T10:25:23.400Z,15
2016-08-03T10:26:23.409Z,20
2016-08-03T10:27:23.440Z,20
2016-08-03T10:28:23.461Z,20
2016-08-03T10:29:23.439Z,20
2016-08-03T10:30:23.429Z,20
2016-08-03T10:31:23.447Z,20
2016-08-03T10:32:23.467Z,20
2016-08-03T10:33:23.529Z,20
2016-08-03T10:34:23.501Z,15
2016-08-03T10:35:23.508Z,20
2016-08-03T10:36:23.487Z,10
2016-08-03T10:37:23.500Z,20
2016-08-03T10:38:23.511Z,20
2016-08-03T10:39:23.538Z,20
2016-08-03T10:40:23.495Z,20
2016-08-03T10:41:23.546Z,20
2016-08-03T10:42:23.532Z,20
2016-08-03T10:43:23.557Z,20
2016-08-03T10:44:23.573Z,20
2016-08-03T10:45:23.569Z,20
2016-08-03T10:47:23.554Z,20
2016-08-03T10:48:23.619Z,20
2016-08-03T10:49:23.573Z,20
2016-08-03T10:50:23.606Z,20
2016-08-03T10:51:23.616Z,20
2016-08-03T10:52:23.643Z,20
2016-08-03T10:53:23.654Z,20
2016-08-03T10:54:23.646Z,20
2016-08-03T10:55:23.685Z,20
2016-08-03T10:56:23.730Z,20
2016-08-03T10:57:23.660Z,20
2016-08-03T10:58:23.711Z,20
2016-08-03T10:59:23.677Z,20
2016-08-03T11:00:23.712Z,20
2016-08-03T11:02:23.726Z,20
2016-08-03T11:03:23.714Z,20
2016-08-03T11:04:23.744Z,20
2016-08-03T11:05:23.723Z,20
2016-08-03T11:06:23.779Z,10
2016-08-03T11:07:23.768Z,20
2016-08-03T11:08:24.490Z,20
2016-08-03T11:09:23.754Z,20
2016-08-03T11:10:23.780Z,20
2016-08-03T11:11:23.793Z,20
2016-08-03T11:12:23.773Z,20
2016-08-03T11:13:23.816Z,20
2016-08-03T11:14:23.817Z,20
2016-08-03T11:15:23.806Z,20
2016-08-03T11:17:23.852Z,20
2016-08-03T11:18:23.831Z,20
2016-08-03T11:19:23.851Z,20
2016-08-03T11:20:23.877Z,15
2016-08-03T11:21:23.881Z,15
2016-08-03T11:22:23.886Z,20
2016-08-03T11:23:23.914Z,20
2016-08-03T11:24:23.912Z,15
2016-08-03T11:25:23.895Z,20
2016-08-03T11:26:23.937Z,20
2016-08-03T11:27:23.938Z,20
2016-08-03T11:28:23.935Z,20
2016-08-03T11:29:23.940Z,20
2016-08-03T11:30:23.978Z,20
2016-08-03T11:32:24.000Z,20
2016-08-03T11:33:23.991Z,20
2016-08-03T11:34:23.997Z,20
2016-08-03T11:35:24.726Z,20
2016-08-03T11:36:24.019Z,20
2016-08-03T11:37:24.049Z,20
2016-08-03T11:38:24.747Z,20
2016-08-03T11:39:24.059Z,20
2016-08-03T11:40:24.063Z,25
2016-08-03T11:41:24.091Z,25
2016-08-03T11:42:24.064Z,25
2016-08-03T11:43:24.053Z,30
2016-08-03T11:44:24.089Z,30
2016-08-03T11:45:24.098Z,25
2016-08-03T11:47:24.142Z,25
2016-08-03T11:48:24.156Z,25
2016-08-03T11:49:24.144Z,20
2016-08-03T11:50:24.151Z,20
2016-08-03T11:51:24.152Z,20
2016-08-03T11:52:24.167Z,25
2016-08-03T11:53:24.195Z,20
2016-08-03T11:54:24.183Z,20
2016-08-03T11:55:24.210Z,20
2016-08-03T11:56:24.260Z,20
2016-08-03T11:57:24.235Z,20
2016-08-03T11:58:24.270Z,20
2016-08-03T11:59:24.239Z,20
2016-08-03T12:00:24.286Z,20
2016-08-03T12:02:24.282Z,20
2016-08-03T12:03:24.306Z,20
2016-08-03T12:04:24.286Z,20
2016-08-03T12:05:24.313Z,20
2016-08-03T12:06:24.339Z,20
2016-08-03T12:07:24.323Z,20
2016-08-03T12:08:24.341Z,20
2016-08-03T12:09:24.359Z,20
2016-08-03T12:10:24.343Z,20
2016-08-03T12:11:24.342Z,20
2016-08-03T12:12:24.391Z,20
2016-08-03T12:13:24.390Z,20
2016-08-03T12:14:24.364Z,20
2016-08-03T12:15:24.417Z,20
2016-08-03T12:17:24.395Z,20
2016-08-03T12:18:24.411Z,20
2016-08-03T12:19:24.428Z,20
2016-08-03T12:20:24.449Z,20
2016-08-03T12:21:24.456Z,20
2016-08-03T12:22:24.479Z,20
2016-08-03T12:23:24.481Z,20
2016-08-03T12:24:24.501Z,20
2016-08-03T12:25:24.519Z,20
2016-08-03T12:26:24.522Z,20
2016-08-03T12:27:24.516Z,20
2016-08-03T12:28:24.543Z,20
2016-08-03T12:29:24.538Z,20
2016-08-03T12:30:24.558Z,20
2016-08-03T12:32:24.580Z,20
2016-08-03T12:33:24.567Z,20
2016-08-03T12:34:24.587Z,20
2016-08-03T12:35:24.627Z,20
2016-08-03T12:36:24.592Z,20
2016-08-03T12:37:24.636Z,20
2016-08-03T12:38:24.640Z,20
2016-08-03T12:39:24.652Z,20
2016-08-03T12:40:24.644Z,20
2016-08-03T12:41:24.666Z,20
2016-08-03T12:42:24.681Z,20
2016-08-03T12:43:24.710Z,25
2016-08-03T12:44:24.686Z,25
2016-08-03T12:45:24.688Z,20
2016-08-03T12:47:24.712Z,20
2016-08-03T12:48:24.728Z,20
2016-08-03T12:49:24.726Z,20
2016-08-03T12:50:24.741Z,20
2016-08-03T12:51:24.748Z,20
2016-08-03T12:52:24.774Z,20
2016-08-03T12:53:24.785Z,20
2016-08-03T12:54:24.797Z,20
2016-08-03T12:55:24.789Z,20
2016-08-03T12:56:24.825Z,20
2016-08-03T12:57:24.852Z,20
2016-08-03T12:58:24.817Z,25
2016-08-03T12:59:24.829Z,25
2016-08-03T13:00:24.806Z,25
2016-08-03T13:01:24.830Z,25
2016-08-03T13:02:24.865Z,30
2016-08-03T13:03:24.861Z,35
2016-08-03T13:04:24.922Z,35
2016-08-03T13:05:24.886Z,35
2016-08-03T13:06:24.886Z,35
2016-08-03T13:07:25.637Z,35
2016-08-03T13:08:24.943Z,35
2016-08-03T13:09:24.930Z,30
2016-08-03T13:10:25.673Z,30
2016-08-03T13:11:25.762Z,35
2016-08-03T13:12:24.974Z,35
2016-08-03T13:13:24.929Z,35
2016-08-03T13:14:24.948Z,35
2016-08-03T13:15:24.943Z,30
2016-08-03T13:16:25.003Z,30
2016-08-03T13:17:25.020Z,30
2016-08-03T13:18:25.006Z,25
2016-08-03T13:19:25.001Z,25
2016-08-03T13:20:25.044Z,20
2016-08-03T13:21:25.036Z,20
2016-08-03T13:22:25.057Z,20
2016-08-03T13:23:25.046Z,20
2016-08-03T13:24:25.055Z,20
2016-08-03T13:25:25.074Z,20
2016-08-03T13:26:25.058Z,20
2016-08-03T13:27:25.146Z,20
2016-08-03T13:28:25.140Z,20
2016-08-03T13:29:25.106Z,25
2016-08-03T13:30:25.147Z,25
2016-08-03T13:31:25.131Z,25
2016-08-03T13:32:25.187Z,30
2016-08-03T13:33:25.140Z,25
2016-08-03T13:34:25.190Z,25
2016-08-03T13:35:25.154Z,25
2016-08-03T13:36:25.205Z,25
2016-08-03T13:37:25.218Z,20
2016-08-03T13:38:25.202Z,20
2016-08-03T13:39:25.242Z,20
2016-08-03T13:40:25.195Z,25
2016-08-03T13:41:25.564Z,25
2016-08-03T13:42:25.225Z,25
2016-08-03T13:43:25.532Z,20
2016-08-03T13:44:25.534Z,20
2016-08-03T13:45:25.264Z,20
2016-08-03T13:46:25.579Z,25
2016-08-03T13:47:25.331Z,25
2016-08-03T13:48:25.326Z,20
2016-08-03T13:49:25.314Z,20
2016-08-03T13:50:25.352Z,20
2016-08-03T13:51:25.374Z,25
2016-08-03T13:52:25.378Z,25
2016-08-03T13:53:25.383Z,25
2016-08-03T13:54:25.394Z,25
2016-08-03T13:55:25.395Z,25
2016-08-03T13:56:25.353Z,20
2016-08-03T13:57:25.603Z,20
2016-08-03T13:58:25.436Z,20
2016-08-03T13:59:25.428Z,20
2016-08-03T14:00:25.430Z,20
2016-08-03T14:01:25.447Z,20
2016-08-03T14:02:25.453Z,15
2016-08-03T14:03:25.435Z,20
2016-08-03T14:04:25.455Z,25
2016-08-03T14:05:25.472Z,20
2016-08-03T14:06:25.492Z,20
2016-08-03T14:07:25.515Z,20
2016-08-03T14:08:25.528Z,20
2016-08-03T14:09:25.502Z,20
2016-08-03T14:10:25.542Z,20
2016-08-03T14:11:25.562Z,20
2016-08-03T14:12:25.554Z,25
2016-08-03T14:13:25.612Z,25
2016-08-03T14:14:25.608Z,20
2016-08-03T14:15:25.612Z,20
2016-08-03T14:16:25.589Z,20
2016-08-03T14:17:25.566Z,20
2016-08-03T14:18:25.634Z,20
2016-08-03T14:19:25.649Z,15
2016-08-03T14:20:25.605Z,20
2016-08-03T14:21:25.678Z,20
2016-08-03T14:22:25.673Z,15
2016-08-03T14:23:25.647Z,20
2016-08-03T14:24:25.676Z,20
2016-08-03T14:25:25.654Z,20
2016-08-03T14:26:25.691Z,20
2016-08-03T14:27:25.752Z,20
2016-08-03T14:28:25.697Z,25
2016-08-03T14:29:25.686Z,20
2016-08-03T14:30:25.720Z,20
2016-08-03T14:31:25.778Z,20
2016-08-03T14:32:25.754Z,20
2016-08-03T14:33:25.774Z,20
2016-08-03T14:34:25.817Z,20
2016-08-03T14:35:25.749Z,20
2016-08-03T14:36:25.738Z,20
2016-08-03T14:37:25.828Z,20
2016-08-03T14:38:25.803Z,20
2016-08-03T14:39:25.822Z,20
2016-08-03T14:40:25.826Z,20
2016-08-03T14:41:25.868Z,20
2016-08-03T14:42:25.860Z,20
2016-08-03T14:43:25.858Z,25
2016-08-03T14:44:25.852Z,25
2016-08-03T14:45:25.865Z,25
2016-08-03T14:46:25.914Z,25
2016-08-03T14:47:25.891Z,25
2016-08-03T14:48:25.897Z,25
2016-08-03T14:49:25.905Z,25
2016-08-03T14:50:25.908Z,20
2016-08-03T14:51:25.920Z,20
2016-08-03T14:52:26.655Z,25